Time;durP1;ratioP1;P1;durP2;ratioP2;P2;SDS_P1;SDS_P2;PMS_P1;PMS_P2;Temp;Humidity;BMP_temperature;BMP_pressure;BME280_temperature;BME280_humidity;BME280_pressure;Samples;Min_cycle;Max_cycle;Signal;HPM_P1;HPM_P2
2022/10/19 01:19:40;;;;;;;;;;;;;;;6.47;100.00;100584.28;4978921;28;19937;-87
2022/10/19 01:22:14;;;;;;;;;;;;;;;6.46;100.00;100579.88;4952022;29;19981;-90
2022/10/19 01:24:53;;;;;;;;;;;;;;;6.48;100.00;100572.88;4951566;28;19990;-88
2022/10/19 01:27:21;;;;;;;;;;;;;;;6.55;100.00;100571.88;4932914;29;19919;-91
2022/10/19 01:29:55;;;;;;;;;;;;;;;6.60;100.00;100572.66;4925003;29;19923;-89
2022/10/19 01:32:33;;;;;;;;;;;;;;;6.59;100.00;100575.31;4930875;29;19919;-91
2022/10/19 01:35:15;;;;;;;;;;;;;;;6.62;100.00;100570.00;4932828;29;19918;-92
2022/10/19 01:37:47;;;;;;;;;;;;;;;6.58;100.00;100570.97;4916931;29;20358;-91
2022/10/19 01:40:26;;;;;;;;;;;;;;;6.60;100.00;100563.91;4932265;29;19973;-87
2022/10/19 01:43:15;;;;;;;;;;;;;;;6.61;100.00;100556.00;4932472;29;20492;-89
2022/10/19 01:45:40;;;;;;;;;;;;;;;6.63;100.00;100556.81;4935928;28;19922;-90
2022/10/19 01:48:05;;;;;;;;;;;;;;;6.64;100.00;100553.31;4969997;28;19922;-92
2022/10/19 01:50:34;;;;;;;;;;;;;;;6.64;100.00;100555.94;4971168;28;20290;-91
2022/10/19 01:53:02;;;;;;;;;;;;;;;6.61;100.00;100550.72;4971204;28;19972;-89
2022/10/19 01:55:27;;;;;;;;;;;;;;;6.60;100.00;100542.84;4970797;28;19922;-91
2022/10/19 01:57:58;;;;;;;;;;;;;;;6.59;100.00;100534.09;4978087;28;20029;-92
2022/10/19 02:00:24;;;;;;;;;;;;;;;6.64;100.00;100536.66;4992132;28;19967;-87
2022/10/19 02:02:52;;;;;;;;;;;;;;;6.61;100.00;100534.06;4973752;28;19918;-88
2022/10/19 02:05:19;;;;;;;;;;;;;;;6.61;100.00;100531.44;4975125;28;20024;-87
2022/10/19 02:07:47;;;;;;;;;;;;;;;6.62;100.00;100528.78;4975250;28;19922;-88
2022/10/19 02:10:12;;;;;;;;;;;;;;;6.61;100.00;100523.53;4992454;28;20012;-88
2022/10/19 02:12:38;;;;;;;;;;;;;;;6.57;100.00;100522.69;4974981;28;20060;-91
2022/10/19 02:15:06;;;;;;;;;;;;;;;6.56;100.00;100523.59;4975146;28;19918;-88
2022/10/19 02:17:34;;;;;;;;;;;;;;;6.59;100.00;100522.66;4991176;28;19969;-89
2022/10/19 07:38:16;;;;;;;;;;;;;;;6.41;100.00;100436.94;5283289;23;20368;-89
2022/10/19 07:40:41;;;;;;;;;;;;;;;6.47;100.00;100434.19;4987520;28;19958;-87
2022/10/19 07:43:06;;;;;;;;;;;;;;;6.46;100.00;100432.44;4987290;28;19964;-87
2022/10/19 07:45:32;;;;;;;;;;;;;;;6.49;100.00;100432.41;5004934;28;19944;-87
2022/10/19 07:47:58;;;;;;;;;;;;;;;6.49;100.00;100427.13;4987647;28;19922;-88
2022/10/19 07:50:26;;;;;;;;;;;;;;;6.47;100.00;100431.56;4987226;28;19973;-88
2022/10/19 07:52:51;;;;;;;;;;;;;;;6.46;100.00;100432.44;4986378;28;19922;-87
2022/10/19 07:55:16;;;;;;;;;;;;;;;6.49;100.00;100429.78;5004607;28;20288;-86
2022/10/19 07:57:42;;;;;;;;;;;;;;;6.51;100.00;100430.59;5005249;28;19917;-87
2022/10/19 08:00:07;;;;;;;;;;;;;;;6.51;100.00;100430.59;4981195;28;19957;-87
2022/10/19 08:02:33;;;;;;;;;;;;;;;6.47;100.00;100439.47;5004264;28;19933;-88
2022/10/19 08:04:58;;;;;;;;;;;;;;;6.53;100.00;100436.75;5004960;28;19918;-87
2022/10/19 08:07:23;;;;;;;;;;;;;;;6.53;100.00;100439.38;5003058;28;20000;-88
2022/10/19 08:09:48;;;;;;;;;;;;;;;6.53;100.00;100434.13;4998980;28;19920;-87
2022/10/19 08:12:14;;;;;;;;;;;;;;;6.53;100.00;100428.84;4987209;28;19922;-88
2022/10/19 08:14:39;;;;;;;;;;;;;;;6.54;100.00;100427.94;5004006;28;19930;-87
2022/10/19 08:17:10;;;;;;;;;;;;;;;6.53;100.00;100432.34;5004153;28;20025;-92
2022/10/19 08:19:40;;;;;;;;;;;;;;;6.53;100.00;100439.38;4981336;28;19925;-88
2022/10/19 08:22:05;;;;;;;;;;;;;;;6.53;100.00;100434.97;5002902;28;19921;-88
2022/10/19 08:24:31;;;;;;;;;;;;;;;6.55;100.00;100435.81;4986946;28;20444;-87
2022/10/19 08:26:56;;;;;;;;;;;;;;;6.50;100.00;100427.13;4986581;28;20009;-87
2022/10/19 08:29:21;;;;;;;;;;;;;;;6.51;100.00;100420.06;4986310;28;19956;-87
2022/10/19 08:31:47;;;;;;;;;;;;;;;6.51;100.00;100430.59;4986228;28;20064;-87
2022/10/19 08:34:13;;;;;;;;;;;;;;;6.54;100.00;100425.31;4986256;28;20016;-87
2022/10/19 08:36:39;;;;;;;;;;;;;;;6.53;100.00;100426.22;4985109;28;19921;-88
2022/10/19 08:39:05;;;;;;;;;;;;;;;6.59;100.00;100422.59;5003823;28;19987;-87
2022/10/19 08:41:40;;;;;;;;;;;;;;;6.54;100.00;100414.75;4986100;28;19917;-87
2022/10/19 08:44:05;;;;;;;;;;;;;;;6.52;100.00;100416.56;5002100;28;20473;-88
2022/10/19 08:46:36;;;;;;;;;;;;;;;6.54;100.00;100415.66;5004006;28;19921;-87
2022/10/19 08:49:02;;;;;;;;;;;;;;;6.59;100.00;100409.44;5002448;28;19928;-87
2022/10/19 08:51:29;;;;;;;;;;;;;;;6.52;100.00;100404.25;5002289;28;19921;-87
2022/10/19 08:53:56;;;;;;;;;;;;;;;6.57;100.00;100396.28;4986615;28;20307;-88
2022/10/19 08:56:33;;;;;;;;;;;;;;;6.54;100.00;100393.69;4985877;28;19925;-88
2022/10/19 08:59:12;;;;;;;;;;;;;;;6.57;100.00;100398.06;5003451;28;20429;-87
2022/10/19 09:01:57;;;;;;;;;;;;;;;6.51;100.00;100391.13;5003481;28;20288;-88
2022/10/19 09:04:42;;;;;;;;;;;;;;;6.58;100.00;100387.50;4986074;28;19957;-87
2022/10/19 09:07:16;;;;;;;;;;;;;;;6.56;100.00;100391.94;4983685;28;19944;-87
2022/10/19 09:09:44;;;;;;;;;;;;;;;6.54;100.00;100384.06;4985882;28;19917;-88
2022/10/19 09:12:12;;;;;;;;;;;;;;;6.54;100.00;100391.06;5003686;28;19914;-86
2022/10/19 09:14:52;;;;;;;;;;;;;;;6.55;100.00;100387.56;5003005;28;19918;-87
2022/10/19 09:17:17;;;;;;;;;;;;;;;6.54;100.00;100381.44;4985566;28;19918;-87
2022/10/19 09:19:42;;;;;;;;;;;;;;;6.54;100.00;100381.44;4985220;28;19976;-88
2022/10/19 09:22:23;;;;;;;;;;;;;;;6.52;100.00;100380.56;4984700;28;19917;-90
2022/10/19 09:24:55;;;;;;;;;;;;;;;6.54;100.00;100380.53;4985327;28;19932;-88
2022/10/19 09:27:22;;;;;;;;;;;;;;;6.56;100.00;100386.66;5003112;28;19924;-87
2022/10/19 09:29:55;;;;;;;;;;;;;;;6.53;100.00;100381.44;4985771;28;19968;-88
2022/10/19 09:32:26;;;;;;;;;;;;;;;6.59;100.00;100388.38;4985401;28;20373;-88
2022/10/19 09:34:53;;;;;;;;;;;;;;;6.55;100.00;100401.56;5002729;28;20272;-88
2022/10/19 09:37:20;;;;;;;;;;;;;;;6.57;100.00;100388.38;4984057;28;19918;-87
2022/10/19 09:39:45;;;;;;;;;;;;;;;6.55;100.00;100391.03;4983986;28;19925;-88
2022/10/19 09:42:22;;;;;;;;;;;;;;;6.57;100.00;100391.03;4985066;28;20372;-88
2022/10/19 09:44:49;;;;;;;;;;;;;;;6.63;100.00;100387.44;4984858;28;20553;-88
2022/10/19 09:47:32;;;;;;;;;;;;;;;6.55;100.00;100382.28;5002739;28;20484;-87
2022/10/19 09:50:07;;;;;;;;;;;;;;;6.59;100.00;100385.72;4985474;28;20332;-89
2022/10/19 09:52:35;;;;;;;;;;;;;;;6.59;100.00;100386.63;4983813;28;19917;-88
2022/10/19 09:55:12;;;;;;;;;;;;;;;6.61;100.00;100382.19;5002573;28;19921;-88
2022/10/19 09:57:44;;;;;;;;;;;;;;;6.57;100.00;100388.38;4985754;28;19921;-88
2022/10/19 10:00:16;;;;;;;;;;;;;;;6.54;100.00;100391.97;4984279;28;19965;-88
2022/10/19 10:02:47;;;;;;;;;;;;;;;6.59;100.00;100389.25;4984676;28;19921;-87
2022/10/19 10:05:13;;;;;;;;;;;;;;;6.55;100.00;100380.50;5001884;28;19917;-86
2022/10/19 10:07:39;;;;;;;;;;;;;;;6.55;100.00;100387.56;4998745;28;19961;-87
2022/10/19 10:10:18;;;;;;;;;;;;;;;6.55;100.00;100382.28;4981347;28;19984;-86
2022/10/19 10:12:45;;;;;;;;;;;;;;;6.53;100.00;100387.56;4999298;28;20369;-87
2022/10/19 10:15:15;;;;;;;;;;;;;;;6.53;100.00;100389.34;4991489;28;19922;-86
2022/10/19 10:17:43;;;;;;;;;;;;;;;6.57;100.00;100377.84;4990463;28;19925;-87
2022/10/19 10:20:19;;;;;;;;;;;;;;;6.53;100.00;100376.19;4990611;28;19928;-86
2022/10/19 10:22:55;;;;;;;;;;;;;;;6.53;100.00;100382.31;4989837;28;19918;-85
2022/10/19 10:25:20;;;;;;;;;;;;;;;6.52;100.00;100379.69;4974798;28;19921;-87
2022/10/19 10:27:53;;;;;;;;;;;;;;;6.55;100.00;100379.66;4974811;28;20336;-87
2022/10/19 10:30:18;;;;;;;;;;;;;;;6.57;100.00;100380.50;4993705;28;19918;-86
2022/10/19 10:32:48;;;;;;;;;;;;;;;6.54;100.00;100377.91;4978923;28;19928;-86
2022/10/19 10:35:18;;;;;;;;;;;;;;;6.51;100.00;100385.84;4986606;28;20349;-88
2022/10/19 10:37:44;;;;;;;;;;;;;;;6.58;100.00;100376.97;4977005;28;19921;-86
2022/10/19 10:40:21;;;;;;;;;;;;;;;6.54;100.00;100367.38;4978039;28;20395;-87
2022/10/19 10:42:47;;;;;;;;;;;;;;;6.56;100.00;100365.59;4994890;28;19918;-87
2022/10/19 10:45:18;;;;;;;;;;;;;;;6.54;100.00;100367.38;4978595;28;19930;-88
2022/10/19 10:47:47;;;;;;;;;;;;;;;6.59;100.00;100365.56;4978207;28;19922;-88
2022/10/19 10:50:18;;;;;;;;;;;;;;;6.57;100.00;100356.78;4978371;28;20007;-87
2022/10/19 10:52:55;;;;;;;;;;;;;;;6.59;100.00;100356.75;4977481;28;19976;-87
2022/10/19 10:55:20;;;;;;;;;;;;;;;6.54;100.00;100352.47;4978641;28;20395;-88
2022/10/19 10:57:49;;;;;;;;;;;;;;;6.59;100.00;100351.50;4995735;28;20016;-89
2022/10/19 11:00:19;;;;;;;;;;;;;;;6.54;100.00;100348.94;4977946;28;20443;-87
2022/10/19 11:02:57;;;;;;;;;;;;;;;6.58;100.00;100334.84;4977912;28;20410;-87
2022/10/19 11:05:22;;;;;;;;;;;;;;;6.57;100.00;100333.09;4971831;28;19914;-88
2022/10/19 11:07:51;;;;;;;;;;;;;;;6.56;100.00;100326.09;4977101;28;20266;-88
2022/10/19 11:10:40;;;;;;;;;;;;;;;6.60;100.00;100324.28;4978073;28;19917;-87
2022/10/19 11:13:15;;;;;;;;;;;;;;;6.56;100.00;100312.94;4984574;28;20365;-92
2022/10/19 11:15:54;;;;;;;;;;;;;;;6.57;100.00;100311.16;4977968;28;19921;-86
2022/10/19 11:18:33;;;;;;;;;;;;;;;6.59;100.00;100315.53;4978114;28;20000;-87
2022/10/19 11:20:58;;;;;;;;;;;;;;;6.61;100.00;100304.97;4986180;28;19922;-87
2022/10/19 11:23:38;;;;;;;;;;;;;;;6.58;100.00;100297.97;4976815;28;19917;-88
2022/10/19 11:26:13;;;;;;;;;;;;;;;6.61;100.00;100290.03;4978045;28;19924;-87
2022/10/19 11:28:47;;;;;;;;;;;;;;;6.61;100.00;100284.75;4977787;28;19928;-87
2022/10/19 11:31:33;;;;;;;;;;;;;;;6.65;100.00;100281.19;4977937;28;19917;-86
2022/10/19 11:34:14;;;;;;;;;;;;;;;6.67;100.00;100273.22;4960995;28;19917;-87
2022/10/19 11:36:58;;;;;;;;;;;;;;;6.64;100.00;100263.63;4989198;28;19981;-87
2022/10/19 11:39:47;;;;;;;;;;;;;;;6.61;100.00;100268.09;4977577;28;19937;-86
2022/10/19 11:42:18;;;;;;;;;;;;;;;6.67;100.00;100260.94;4966708;28;19940;-86
2022/10/19 11:44:52;;;;;;;;;;;;;;;6.62;100.00;100254.00;4977774;28;19968;-87
2022/10/19 11:47:28;;;;;;;;;;;;;;;6.64;100.00;100257.50;4977129;28;20012;-87
2022/10/19 11:50:02;;;;;;;;;;;;;;;6.64;100.00;100250.47;4977360;28;19973;-87
2022/10/19 11:52:34;;;;;;;;;;;;;;;6.61;100.00;100253.16;4993290;28;20000;-87
2022/10/19 11:55:05;;;;;;;;;;;;;;;6.61;100.00;100247.88;4977102;28;19918;-87
2022/10/19 11:57:39;;;;;;;;;;;;;;;6.65;100.00;100239.06;4977272;28;19933;-88
2022/10/19 12:00:04;;;;;;;;;;;;;;;6.67;100.00;100237.25;4977345;28;20403;-87
2022/10/19 12:02:36;;;;;;;;;;;;;;;6.68;100.00;100224.94;4977221;28;19961;-88
2022/10/19 12:05:16;;;;;;;;;;;;;;;6.67;100.00;100224.06;4977241;28;19925;-90
2022/10/19 12:08:00;;;;;;;;;;;;;;;6.64;100.00;100215.38;4975853;28;19933;-90
2022/10/19 12:10:26;;;;;;;;;;;;;;;6.67;100.00;100203.00;4994912;28;20364;-89
2022/10/19 12:12:54;;;;;;;;;;;;;;;6.66;100.00;100203.91;4977158;28;19964;-88
2022/10/19 12:15:23;;;;;;;;;;;;;;;6.69;100.00;100203.84;4976579;28;20289;-87
2022/10/19 12:17:50;;;;;;;;;;;;;;;6.65;100.00;100202.19;4976523;28;19921;-89
2022/10/19 12:20:29;;;;;;;;;;;;;;;6.70;100.00;100199.44;4977111;28;20288;-87
2022/10/19 12:22:57;;;;;;;;;;;;;;;6.77;100.00;100205.47;4975569;28;19917;-87
2022/10/19 12:25:23;;;;;;;;;;;;;;;6.75;100.00;100186.16;4976740;28;20369;-86
2022/10/19 12:27:49;;;;;;;;;;;;;;;6.71;100.00;100180.09;4993720;28;19922;-87
2022/10/19 12:30:22;;;;;;;;;;;;;;;6.66;100.00;100188.09;4994442;28;20197;-87
2022/10/19 12:32:59;;;;;;;;;;;;;;;6.72;100.00;100182.72;4977021;28;19918;-87
2022/10/19 12:35:38;;;;;;;;;;;;;;;6.70;100.00;100168.72;4976637;28;19918;-87
2022/10/19 12:38:24;;;;;;;;;;;;;;;6.71;100.00;100167.78;4971810;28;20350;-87
2022/10/19 12:40:59;;;;;;;;;;;;;;;6.67;100.00;100162.63;4972883;28;19943;-87
2022/10/19 12:43:35;;;;;;;;;;;;;;;6.69;100.00;100159.06;4973511;28;19925;-86
2022/10/19 12:46:15;;;;;;;;;;;;;;;6.72;100.00;100153.75;4972633;28;19918;-86
2022/10/19 12:48:41;;;;;;;;;;;;;;;6.70;100.00;100157.28;4973441;28;19922;-87
2022/10/19 12:51:10;;;;;;;;;;;;;;;6.76;100.00;100153.69;4973283;28;20366;-87
2022/10/19 12:53:37;;;;;;;;;;;;;;;6.71;100.00;100140.59;4972111;28;20008;-87
2022/10/19 12:56:04;;;;;;;;;;;;;;;6.68;100.00;100130.13;4973344;28;19918;-86
2022/10/19 12:58:51;;;;;;;;;;;;;;;6.67;100.00;100136.28;4974384;28;20401;-87
2022/10/19 13:01:19;;;;;;;;;;;;;;;6.69;100.00;100139.78;4972863;28;19918;-87
2022/10/19 13:03:46;;;;;;;;;;;;;;;6.67;100.00;100141.56;4972951;28;19918;-87
2022/10/19 13:06:14;;;;;;;;;;;;;;;6.70;100.00;100141.50;4972432;28;19996;-88
2022/10/19 13:08:46;;;;;;;;;;;;;;;6.66;100.00;100130.16;4971682;28;19918;-88
2022/10/19 13:11:15;;;;;;;;;;;;;;;6.69;100.00;100122.19;4972090;28;20378;-87
2022/10/19 13:13:50;;;;;;;;;;;;;;;6.65;100.00;100123.19;4971859;28;20464;-88
2022/10/19 13:16:27;;;;;;;;;;;;;;;6.65;100.00;100117.91;4973964;28;20012;-88
2022/10/19 13:19:00;;;;;;;;;;;;;;;6.66;100.00;100114.38;4972859;28;19918;-87
2022/10/19 13:21:44;;;;;;;;;;;;;;;6.65;100.00;100112.66;4972630;28;19941;-87
2022/10/19 13:24:25;;;;;;;;;;;;;;;6.66;100.00;100122.25;4972434;28;19918;-87
2022/10/19 13:27:02;;;;;;;;;;;;;;;6.69;100.00;100119.56;4973668;28;20009;-87
2022/10/19 13:29:40;;;;;;;;;;;;;;;6.66;100.00;100119.63;4972249;28;19957;-88
2022/10/19 13:32:24;;;;;;;;;;;;;;;6.67;100.00;100115.22;4971857;28;19922;-88
2022/10/19 13:34:49;;;;;;;;;;;;;;;6.64;100.00;100116.16;4972518;28;19981;-88
2022/10/19 13:37:20;;;;;;;;;;;;;;;6.67;100.00;100115.22;4971214;28;19922;-89
2022/10/19 13:39:46;;;;;;;;;;;;;;;6.65;100.00;100117.03;4971702;28;20365;-87
2022/10/19 13:42:26;;;;;;;;;;;;;;;6.66;100.00;100109.09;4972157;28;19922;-88
2022/10/19 13:44:52;;;;;;;;;;;;;;;6.67;100.00;100102.06;4972145;28;19968;-88
2022/10/19 13:47:24;;;;;;;;;;;;;;;6.65;100.00;100094.22;4972207;28;20404;-87
2022/10/19 13:50:01;;;;;;;;;;;;;;;6.65;100.00;100096.84;4972088;28;19922;-88
2022/10/19 13:52:46;;;;;;;;;;;;;;;6.68;100.00;100099.38;4971822;28;20278;-88
2022/10/19 13:55:38;;;;;;;;;;;;;;;6.71;100.00;100101.94;4972100;28;19922;-88
2022/10/19 13:58:19;;;;;;;;;;;;;;;6.65;100.00;100096.84;4973464;28;20300;-87
2022/10/19 14:01:06;;;;;;;;;;;;;;;6.70;100.00;100086.19;4972178;28;19925;-89
2022/10/19 14:03:41;;;;;;;;;;;;;;;6.69;100.00;100074.78;4971871;28;20369;-89
2022/10/19 14:06:30;;;;;;;;;;;;;;;6.63;100.00;100077.56;4971054;28;19922;-88
2022/10/19 14:09:09;;;;;;;;;;;;;;;6.71;100.00;100085.28;4970971;28;19918;-88
2022/10/19 14:11:36;;;;;;;;;;;;;;;6.67;100.00;100079.25;4971874;28;19922;-88
2022/10/19 14:14:10;;;;;;;;;;;;;;;6.69;100.00;100085.31;4971790;28;19932;-88
2022/10/19 14:16:47;;;;;;;;;;;;;;;6.68;100.00;100080.94;4970526;28;20202;-88
2022/10/19 14:19:13;;;;;;;;;;;;;;;6.71;100.00;100072.97;4973080;28;19925;-88
2022/10/19 14:21:38;;;;;;;;;;;;;;;6.67;100.00;100080.97;4970905;28;19922;-88
2022/10/19 14:24:18;;;;;;;;;;;;;;;6.68;100.00;100074.81;4972752;28;19973;-87
2022/10/19 14:26:43;;;;;;;;;;;;;;;6.73;100.00;100084.38;4972861;28;19918;-88
2022/10/19 14:29:12;;;;;;;;;;;;;;;6.82;100.00;100082.44;4969014;28;19972;-87
2022/10/19 14:31:37;;;;;;;;;;;;;;;6.73;100.00;100079.09;4973075;28;19973;-87
2022/10/19 14:34:06;;;;;;;;;;;;;;;6.82;100.00;100077.16;4972985;28;19918;-88
2022/10/19 14:36:57;;;;;;;;;;;;;;;6.73;100.00;100071.19;4970342;28;19922;-88
2022/10/19 14:39:23;;;;;;;;;;;;;;;6.79;100.00;100071.97;4968814;28;19938;-88
2022/10/19 14:41:51;;;;;;;;;;;;;;;6.72;100.00;100066.81;4973049;28;20271;-88
2022/10/19 14:44:39;;;;;;;;;;;;;;;6.83;100.00;100068.34;4971730;28;19925;-88
2022/10/19 14:47:26;;;;;;;;;;;;;;;6.78;100.00;100067.59;4971656;28;20406;-88
2022/10/19 14:49:51;;;;;;;;;;;;;;;6.81;100.00;100073.66;4971229;28;19933;-87
2022/10/19 14:52:24;;;;;;;;;;;;;;;6.85;100.00;100074.47;4971685;28;19919;-87
2022/10/19 14:54:50;;;;;;;;;;;;;;;6.85;100.00;100075.31;4970836;28;20373;-88
2022/10/19 14:57:23;;;;;;;;;;;;;;;6.84;100.00;100068.31;4972873;28;20017;-88
2022/10/19 15:00:15;;;;;;;;;;;;;;;6.75;100.00;100065.91;4971863;28;19969;-91
2022/10/19 15:02:44;;;;;;;;;;;;;;;6.79;100.00;100064.91;4949709;28;19978;-87
2022/10/19 15:05:21;;;;;;;;;;;;;;;6.76;100.00;100066.75;4971503;28;19918;-87
2022/10/19 15:07:46;;;;;;;;;;;;;;;6.77;100.00;100063.25;4970314;28;19918;-87
2022/10/19 15:10:18;;;;;;;;;;;;;;;6.77;100.00;100063.25;4972720;28;19922;-87
2022/10/19 15:12:44;;;;;;;;;;;;;;;6.86;100.00;100052.47;4972576;28;19922;-88
2022/10/19 15:15:21;;;;;;;;;;;;;;;6.82;100.00;100050.81;4972633;28;20024;-87
2022/10/19 15:17:53;;;;;;;;;;;;;;;6.81;100.00;100054.34;4974487;28;19928;-88
2022/10/19 15:20:24;;;;;;;;;;;;;;;6.77;100.00;100052.69;4974966;28;19918;-88
2022/10/19 15:22:49;;;;;;;;;;;;;;;6.77;100.00;100050.94;4973716;28;19989;-88
2022/10/19 15:25:24;;;;;;;;;;;;;;;6.75;100.00;100058.00;4974807;28;20361;-89
2022/10/19 15:27:49;;;;;;;;;;;;;;;6.75;100.00;100057.13;4975940;28;20382;-88
2022/10/19 15:30:17;;;;;;;;;;;;;;;6.76;100.00;100051.81;4974654;28;19950;-88
2022/10/19 15:33:01;;;;;;;;;;;;;;;6.73;100.00;100051.88;4970424;28;19973;-88
2022/10/19 15:35:38;;;;;;;;;;;;;;;6.70;100.00;100050.19;4974194;28;20496;-91
2022/10/19 15:38:14;;;;;;;;;;;;;;;6.75;100.00;100051.84;4973352;28;19929;-86
2022/10/19 15:40:41;;;;;;;;;;;;;;;6.72;100.00;100058.94;4974055;28;19929;-89
2022/10/19 15:43:25;;;;;;;;;;;;;;;6.73;100.00;100052.78;4975039;28;19922;-88
2022/10/19 15:46:22;;;;;;;;;;;;;;;6.69;100.00;100055.50;4973031;28;19926;-93
2022/10/19 15:48:51;;;;;;;;;;;;;;;6.76;100.00;100041.28;5141079;23;19917;-91
2022/10/19 15:51:32;;;;;;;;;;;;;;;6.71;100.00;100046.66;5013464;28;19928;-92
2022/10/19 15:54:04;;;;;;;;;;;;;;;6.69;100.00;100040.56;5013448;28;19918;-86
2022/10/19 15:56:31;;;;;;;;;;;;;;;6.72;100.00;100034.38;5013873;28;19921;-87
2022/10/19 15:58:57;;;;;;;;;;;;;;;6.68;100.00;100038.81;5013378;28;19971;-86
2022/10/19 16:01:26;;;;;;;;;;;;;;;6.66;100.00;100038.00;5013623;28;19964;-87
2022/10/19 16:03:52;;;;;;;;;;;;;;;6.69;100.00;100030.03;5013711;28;19921;-87
2022/10/19 16:06:18;;;;;;;;;;;;;;;6.66;100.00;100024.81;5011918;28;19925;-87
2022/10/19 16:08:46;;;;;;;;;;;;;;;6.67;100.00;100021.31;5019360;28;19926;-87
2022/10/19 16:11:12;;;;;;;;;;;;;;;6.66;100.00;100005.53;5010935;28;20476;-87
2022/10/19 16:13:37;;;;;;;;;;;;;;;6.68;100.00;100007.22;5012624;28;20087;-87
2022/10/19 16:16:04;;;;;;;;;;;;;;;6.67;100.00;100007.25;5007209;28;20293;-87
2022/10/19 16:18:29;;;;;;;;;;;;;;;6.67;100.00;100010.78;5014145;28;19917;-86
2022/10/19 16:20:54;;;;;;;;;;;;;;;6.66;100.00;100009.03;5013143;28;20380;-86
2022/10/19 16:23:20;;;;;;;;;;;;;;;6.64;100.00;100002.94;5019179;28;19925;-87
2022/10/19 16:25:45;;;;;;;;;;;;;;;6.64;100.00;100004.72;5010577;28;20586;-89
2022/10/19 16:28:18;;;;;;;;;;;;;;;6.65;100.00;100004.69;5012670;28;20388;-88
2022/10/19 16:30:57;;;;;;;;;;;;;;;6.65;100.00;99996.78;5011620;28;19926;-88
2022/10/19 16:33:22;;;;;;;;;;;;;;;6.65;100.00;100001.16;5010593;28;19936;-88
2022/10/19 16:35:48;;;;;;;;;;;;;;;6.65;100.00;99996.78;5012286;28;19929;-87
2022/10/19 16:38:13;;;;;;;;;;;;;;;6.73;100.00;100002.72;5010639;28;19972;-87
2022/10/19 16:40:38;;;;;;;;;;;;;;;6.69;100.00;99997.56;5011980;28;19929;-87
2022/10/19 16:43:04;;;;;;;;;;;;;;;6.65;100.00;99986.25;5011084;28;20369;-87
2022/10/19 16:45:30;;;;;;;;;;;;;;;6.64;100.00;99992.41;5012591;28;19929;-87
2022/10/19 16:47:56;;;;;;;;;;;;;;;6.63;100.00;99989.81;5026669;28;19921;-86
2022/10/19 16:50:24;;;;;;;;;;;;;;;6.62;100.00;99994.22;5012501;28;19932;-86
2022/10/19 16:53:16;;;;;;;;;;;;;;;6.67;100.00;99997.59;5026229;28;20301;-88
2022/10/19 16:55:41;;;;;;;;;;;;;;;6.67;100.00;99992.34;5009402;28;19995;-87
2022/10/19 16:58:06;;;;;;;;;;;;;;;6.61;100.00;99997.75;5013530;28;20327;-88
2022/10/19 17:00:32;;;;;;;;;;;;;;;6.58;100.00;100004.84;5011410;28;19930;-87
2022/10/19 17:02:57;;;;;;;;;;;;;;;6.66;100.00;100008.19;5012611;28;20400;-87
2022/10/19 17:05:22;;;;;;;;;;;;;;;6.62;100.00;99999.50;5013380;28;20354;-87
2022/10/19 17:07:47;;;;;;;;;;;;;;;6.61;100.00;99999.53;5009527;28;20364;-88
2022/10/19 17:10:19;;;;;;;;;;;;;;;6.68;100.00;100004.59;5020071;28;19933;-87
2022/10/19 17:12:44;;;;;;;;;;;;;;;6.64;100.00;99997.69;5010859;28;19925;-87
2022/10/19 17:15:15;;;;;;;;;;;;;;;6.61;100.00;99995.13;5011331;28;20011;-92
2022/10/19 17:17:40;;;;;;;;;;;;;;;6.69;100.00;99998.44;5012873;28;19918;-88
2022/10/19 17:20:05;;;;;;;;;;;;;;;6.66;100.00;100001.13;5013180;28;19960;-88
2022/10/19 17:22:31;;;;;;;;;;;;;;;6.70;100.00;99994.91;5010533;28;19929;-91
2022/10/19 17:24:56;;;;;;;;;;;;;;;6.70;100.00;100000.16;5011194;28;20300;-87
2022/10/19 17:27:21;;;;;;;;;;;;;;;6.63;100.00;99995.94;5013039;28;20395;-87
2022/10/19 17:29:49;;;;;;;;;;;;;;;6.65;100.00;99993.25;5010460;28;19921;-86
2022/10/19 17:32:14;;;;;;;;;;;;;;;6.64;100.00;99996.81;5011643;28;20444;-88
2022/10/19 17:34:40;;;;;;;;;;;;;;;6.67;100.00;99986.19;5010266;28;20068;-89
2022/10/19 17:37:05;;;;;;;;;;;;;;;6.64;100.00;99984.50;5010594;28;20368;-88
2022/10/19 17:39:30;;;;;;;;;;;;;;;6.63;100.00;99981.91;5007450;28;19967;-89
2022/10/19 17:42:00;;;;;;;;;;;;;;;6.68;100.00;99988.78;5010599;28;20372;-86
2022/10/19 17:44:25;;;;;;;;;;;;;;;6.66;100.00;99987.97;5003102;28;19917;-88
2022/10/19 17:46:50;;;;;;;;;;;;;;;6.66;100.00;99987.97;4991742;28;20296;-88
2022/10/19 17:49:17;;;;;;;;;;;;;;;6.66;100.00;99992.38;4991579;28;19958;-87
2022/10/19 17:51:42;;;;;;;;;;;;;;;6.66;100.00;99987.97;4989702;28;19926;-88
2022/10/19 17:54:09;;;;;;;;;;;;;;;6.70;100.00;99988.75;4990705;28;19922;-87
2022/10/19 17:56:38;;;;;;;;;;;;;;;6.68;100.00;99990.56;4989350;28;19925;-88
2022/10/19 17:59:06;;;;;;;;;;;;;;;6.71;100.00;99991.34;4987634;28;19960;-87
2022/10/19 18:01:31;;;;;;;;;;;;;;;6.69;100.00;99980.00;5005813;28;20385;-88
2022/10/19 18:03:56;;;;;;;;;;;;;;;6.75;100.00;99980.75;4990559;28;19964;-88
2022/10/19 18:06:27;;;;;;;;;;;;;;;6.71;100.00;99980.81;4990623;28;20049;-88
2022/10/19 18:08:53;;;;;;;;;;;;;;;6.72;100.00;99979.06;4990277;28;19921;-86
2022/10/19 18:11:20;;;;;;;;;;;;;;;6.70;100.00;99979.09;4990985;28;19918;-89
2022/10/19 18:13:46;;;;;;;;;;;;;;;6.64;100.00;99981.03;4987352;28;19925;-88
2022/10/19 18:16:13;;;;;;;;;;;;;;;6.62;100.00;99982.81;4986994;28;19921;-88
2022/10/19 18:18:40;;;;;;;;;;;;;;;6.65;100.00;99980.09;4988467;28;19926;-89
2022/10/19 18:21:07;;;;;;;;;;;;;;;6.67;100.00;99976.53;4986863;28;20381;-87
2022/10/19 18:23:32;;;;;;;;;;;;;;;6.68;100.00;99978.25;5000766;28;19922;-88
2022/10/19 18:26:01;;;;;;;;;;;;;;;6.70;100.00;99968.56;4986738;28;19937;-87
2022/10/19 18:28:28;;;;;;;;;;;;;;;6.65;100.00;99967.81;5002330;28;20077;-87
2022/10/19 18:30:53;;;;;;;;;;;;;;;6.66;100.00;99966.03;5003304;28;19929;-87
2022/10/19 18:33:19;;;;;;;;;;;;;;;6.64;100.00;99967.84;4989672;28;20369;-86
2022/10/19 18:35:44;;;;;;;;;;;;;;;6.64;100.00;99959.97;4987196;28;19922;-87
2022/10/19 18:38:09;;;;;;;;;;;;;;;6.65;100.00;99953.75;4986945;28;20324;-86
2022/10/19 18:40:35;;;;;;;;;;;;;;;6.67;100.00;99962.47;4987287;28;19947;-87
2022/10/19 18:43:01;;;;;;;;;;;;;;;6.64;100.00;99968.72;4989281;28;20461;-86
2022/10/19 18:45:26;;;;;;;;;;;;;;;6.62;100.00;99960.00;4988268;28;20033;-86
2022/10/19 18:47:52;;;;;;;;;;;;;;;6.63;100.00;99955.56;4988091;28;19922;-89
2022/10/19 18:50:17;;;;;;;;;;;;;;;6.59;100.00;99946.00;4984253;28;20471;-85
2022/10/19 18:52:42;;;;;;;;;;;;;;;6.63;100.00;99947.69;5005061;28;19943;-82
2022/10/19 18:55:08;;;;;;;;;;;;;;;6.64;100.00;99945.00;4991888;28;19933;-84
2022/10/19 18:57:33;;;;;;;;;;;;;;;6.65;100.00;99949.38;4991730;28;20377;-88
2022/10/19 18:59:59;;;;;;;;;;;;;;;6.58;100.00;99947.78;5007569;28;19996;-90
2022/10/19 19:02:24;;;;;;;;;;;;;;;6.62;100.00;99944.19;4989658;28;19969;-86
2022/10/19 19:04:49;;;;;;;;;;;;;;;6.63;100.00;99953.81;4987267;28;19980;-87
2022/10/19 19:07:15;;;;;;;;;;;;;;;6.68;100.00;99949.28;4987106;28;19924;-86
2022/10/19 19:09:41;;;;;;;;;;;;;;;6.65;100.00;99948.50;4985661;28;19950;-85
2022/10/19 19:12:06;;;;;;;;;;;;;;;6.65;100.00;99946.75;4991705;28;19922;-87
2022/10/19 19:14:32;;;;;;;;;;;;;;;6.60;100.00;99945.97;4990275;28;19975;-88
2022/10/19 19:16:57;;;;;;;;;;;;;;;6.59;100.00;99949.53;4984897;28;19922;-89
2022/10/19 19:19:24;;;;;;;;;;;;;;;6.60;100.00;99945.97;4988477;28;19933;-87
2022/10/19 19:21:49;;;;;;;;;;;;;;;6.61;100.00;99947.72;4991356;28;20820;-84
2022/10/19 19:24:16;;;;;;;;;;;;;;;6.60;100.00;99950.38;4991373;28;19952;-86
2022/10/19 19:26:43;;;;;;;;;;;;;;;6.60;100.00;99939.84;4994117;28;20345;-86
2022/10/19 19:29:09;;;;;;;;;;;;;;;6.59;100.00;99944.25;4993474;28;19922;-87
2022/10/19 19:31:54;;;;;;;;;;;;;;;6.58;100.00;99946.94;5009341;28;19928;-90